Latest Weather Observations for Point Stuart

IDD60901

Issued at 4:01 pm CST Monday 26 September 2022 (issued every 10 minutes, with the page automatically refreshed every 10 minutes)

About weather observations | Map of Darwin area stations | Latest observations for Darwin area | Other Formats
Station Details ID: 014254 Name: POINT STUART Lat: -12.24 Lon: 131.88 Height: 1.0 m
Data from the previous 72 hours. | See also: Recent months at Point Stuart
Date/Time
CST
Temp
°C
App
Temp
°C
Dew
Point
°C
Rel
Hum
%
Delta-T
°C
Wind Press
QNH
hPa
Press
MSL
hPa
Rain since
9am
mm
Dir  Spd
km/h
Gust
km/h
Spd
kts
Gust
kts
26/04:00pm 32.6 35.1 22.4 55 7.0 N 13 24 7 13 1006.4 1006.4 0.0
26/03:30pm 33.4 35.8 22.2 52 7.7 NNW 13 24 7 13 1006.7 1006.7 0.0
26/03:00pm 33.7 36.2 22.5 52 7.7 N 13 22 7 12 1007.1 1007.1 0.0
26/02:30pm 33.5 35.2 21.6 49 8.1 N 15 30 8 16 1007.4 1007.4 0.0
26/02:00pm 33.1 34.9 21.9 51 7.6 NNE 15 24 8 13 1007.7 1007.7 0.0
26/01:30pm 32.7 34.7 21.5 51 7.6 N 13 24 7 13 1008.3 1008.3 0.0
26/01:00pm 32.4 34.8 22.2 55 7.0 NE 13 20 7 11 1008.8 1008.8 0.0
26/12:30pm 33.1 37.2 24.6 61 6.0 NNE 11 20 6 11 1009.1 1009.1 0.0
26/12:00pm 32.6 36.2 23.8 59 6.1 NNE 11 20 6 11 1009.6 1009.6 0.0
26/11:30am 31.4 35.0 24.3 66 5.0 N 13 24 7 13 1009.8 1009.8 0.0
26/11:00am 31.8 35.2 24.1 63 5.4 NNE 13 22 7 12 1010.3 1010.3 0.0
26/10:30am 31.5 34.4 23.1 61 5.8 NE 13 19 7 10 1010.6 1010.6 0.0
26/10:00am 31.5 35.6 24.6 67 4.8 N 11 20 6 11 1010.5 1010.5 0.0
26/09:30am 29.4 34.3 24.7 76 3.3 NE 7 11 4 6 1010.6 1010.6 0.0
26/09:00am 29.1 33.5 24.4 76 3.3 NE 9 15 5 8 1010.5 1010.5 0.0
26/08:30am 28.9 33.8 24.7 78 2.9 SE 7 9 4 5 1010.4 1010.4 0.0
26/08:00am 27.4 32.7 25.0 87 1.7 ESE 6 7 3 4 1010.2 1010.2 0.0
26/07:30am 25.3 30.6 24.4 95 0.6 ESE 4 9 2 5 1010.0 1010.0 0.0
26/07:00am 23.8 28.0 23.1 96 0.5 ESE 6 7 3 4 1009.8 1009.8 0.0
26/06:30am 23.5 27.5 22.7 95 0.5 SE 6 6 3 3 1009.4 1009.4 0.0
26/06:00am 23.6 27.5 22.6 94 0.7 ESE 6 7 3 4 1009.0 1009.0 0.0
26/05:30am 23.7 27.4 22.5 93 0.8 SE 7 7 4 4 1008.6 1008.6 0.0
26/05:00am 23.9 27.8 22.5 92 0.9 SE 6 7 3 4 1008.4 1008.4 0.0
26/04:30am 24.7 28.9 23.1 91 1.1 SSE 6 7 3 4 1008.2 1008.2 0.0
26/04:00am 24.6 28.7 23.2 92 0.9 ESE 7 9 4 5 1008.2 1008.2 0.0
26/03:30am 24.5 28.6 22.9 91 1.1 SE 6 7 3 4 1008.2 1008.2 0.0
26/03:00am 24.9 29.1 23.1 90 1.2 SE 6 7 3 4 1008.2 1008.2 0.0
26/02:30am 25.1 29.1 22.8 87 1.6 SSE 6 7 3 4 1008.5 1008.5 0.0
26/02:00am 25.7 29.6 22.6 83 2.1 S 6 7 3 4 1008.8 1008.8 0.0
26/01:30am 26.5 29.8 22.6 79 2.6 SW 9 13 5 7 1009.0 1009.0 0.0
26/01:00am 27.3 30.2 23.1 78 2.9 NW 13 17 7 9 1009.3 1009.3 0.0
26/12:30am 27.5 30.6 23.5 79 2.7 NW 13 19 7 10 1009.5 1009.5 0.0
26/12:00am 27.9 31.1 23.7 78 2.9 NNW 13 19 7 10 1009.8 1009.8 0.0
 
Date/Time
CST
Temp
°C
App
Temp
°C
Dew
Point
°C
Rel
Hum
%
Delta-T
°C
Wind Press
QNH
hPa
Press
MSL
hPa
Rain since
9am
mm
Dir  Spd
km/h
Gust
km/h
Spd
kts
Gust
kts
25/11:30pm 28.0 31.3 23.8 78 2.9 NNW 13 19 7 10 1009.9 1009.9 0.0
25/11:00pm 28.3 32.5 24.1 78 2.9 NNW 9 15 5 8 1009.9 1009.9 0.0
25/10:30pm 28.7 33.4 24.3 77 3.1 NNW 7 15 4 8 1009.9 1009.9 0.0
25/10:00pm 28.4 31.4 21.9 68 4.4 NNW 9 17 5 9 1009.7 1009.7 0.0
25/09:30pm 28.5 31.4 21.0 64 5.0 NNW 7 11 4 6 1009.4 1009.4 0.0
25/09:00pm 28.5 31.3 21.5 66 4.7 NNW 9 13 5 7 1008.9 1008.9 0.0
25/08:30pm 27.8 31.2 21.6 69 4.1 NNW 6 9 3 5 1008.4 1008.4 0.0
25/08:00pm 28.0 30.9 21.1 66 4.6 NW 7 11 4 6 1007.9 1007.9 0.0
25/07:30pm 29.0 31.1 21.0 62 5.3 NW 11 15 6 8 1007.4 1007.4 0.0
25/07:00pm 29.7 31.3 20.0 56 6.4 NNW 11 20 6 11 1007.3 1007.3 0.0
25/06:30pm 30.5 31.7 19.8 52 7.0 NNW 13 19 7 10 1007.0 1007.0 0.0
25/06:00pm 31.3 32.3 20.3 52 7.3 NNW 15 20 8 11 1006.7 1006.7 0.0
25/05:30pm 31.4 33.8 21.6 56 6.6 NNW 11 20 6 11 1006.5 1006.5 0.0
25/05:00pm 32.6 34.4 21.8 53 7.3 NW 15 22 8 12 1006.5 1006.5 0.0
25/04:30pm 33.4 35.2 22.5 52 7.5 NNW 17 26 9 14 1006.6 1006.6 0.0
25/04:00pm 32.8 35.1 22.0 53 7.3 NNW 13 20 7 11 1006.8 1006.8 0.0
25/03:30pm 32.6 34.4 21.8 53 7.3 NNW 15 24 8 13 1007.1 1007.1 0.0
25/03:00pm 33.7 36.0 22.1 50 7.9 NNW 13 24 7 13 1007.4 1007.4 0.0
25/02:30pm 33.3 35.4 22.4 52 7.5 N 15 26 8 14 1007.8 1007.8 0.0
25/02:00pm 33.3 35.1 21.8 51 7.8 N 15 22 8 12 1008.3 1008.3 0.0
25/01:30pm 33.4 35.8 22.2 52 7.7 N 13 22 7 12 1008.7 1008.7 0.0
25/01:00pm 33.0 35.2 21.8 51 7.6 N 13 24 7 13 1009.4 1009.4 0.0
25/12:30pm 33.3 35.3 21.5 50 8.0 NNW 13 20 7 11 1010.0 1010.0 0.0
25/12:00pm 32.6 34.6 21.5 52 7.5 N 13 22 7 12 1010.6 1010.6 0.0
25/11:30am 32.7 34.7 21.5 51 7.6 N 13 20 7 11 1011.0 1011.0 0.0
25/11:00am 32.6 35.3 22.1 54 7.2 NNW 11 22 6 12 1011.4 1011.4 0.0
25/10:30am 32.3 34.1 21.2 52 7.5 NNW 13 20 7 11 1011.6 1011.6 0.0
25/10:00am 32.0 34.2 21.8 54 6.9 NW 13 20 7 11 1011.8 1011.8 0.0
25/09:30am 30.6 32.4 21.1 57 6.4 NW 13 17 7 9 1011.8 1011.8 0.0
25/09:00am 30.8 33.8 21.9 59 6.0 NW 9 17 5 9 1011.7 1011.7 0.0
25/08:30am 29.8 33.5 22.3 64 5.1 SSE 6 7 3 4 1011.5 1011.5 0.0
25/08:00am 27.9 32.2 22.6 73 3.6 SSE 4 6 2 3 1011.1 1011.1 0.0
25/07:30am 25.3 30.2 22.4 84 1.9 CALM 0 0 0 0 1010.8 1010.8 0.0
25/07:00am 23.6 26.9 21.5 88 1.4 E 6 7 3 4 1010.3 1010.3 0.0
25/06:30am 22.8 26.5 20.7 88 1.4 ESE 2 7 1 4 1009.8 1009.8 0.0
25/06:00am 23.3 27.7 21.4 89 1.3 CALM 0 0 0 0 1009.5 1009.5 0.0
25/05:30am 23.1 27.3 21.0 88 1.4 CALM 0 0 0 0 1009.2 1009.2 0.0
25/05:00am 23.3 27.6 21.2 88 1.4 CALM 0 0 0 0 1008.8 1008.8 0.0
25/04:30am 24.0 28.6 21.7 87 1.5 CALM 0 0 0 0 1008.6 1008.6 0.0
25/04:00am 24.2 28.7 21.5 85 1.8 CALM 0 0 0 0 1008.6 1008.6 0.0
25/03:30am 24.4 28.8 21.3 83 2.0 CALM 0 0 0 0 1008.7 1008.7 0.0
25/03:00am 24.9 28.2 21.4 81 2.3 NNE 6 7 3 4 1008.9 1008.9 0.0
25/02:30am 25.7 29.1 21.6 78 2.7 NNE 6 7 3 4 1009.0 1009.0 0.0
25/02:00am 26.3 29.7 21.7 76 3.1 NNE 6 7 3 4 1009.2 1009.2 0.0
25/01:30am 27.7 31.5 22.4 73 3.6 N 6 9 3 5 1009.4 1009.4 0.0
25/01:00am 28.1 32.1 22.8 73 3.6 N 6 7 3 4 1009.7 1009.7 0.0
25/12:30am 28.0 31.7 22.2 70 3.9 N 6 9 3 5 1010.1 1010.1 0.0
25/12:00am 28.8 32.5 22.5 68 4.3 NNW 7 13 4 7 1010.2 1010.2 0.0
 
Date/Time
CST
Temp
°C
App
Temp
°C
Dew
Point
°C
Rel
Hum
%
Delta-T
°C
Wind Press
QNH
hPa
Press
MSL
hPa
Rain since
9am
mm
Dir  Spd
km/h
Gust
km/h
Spd
kts
Gust
kts
24/11:30pm 29.0 31.9 21.7 64 4.9 N 9 17 5 9 1010.4 1010.4 0.0
24/11:00pm 28.7 31.2 21.0 63 5.1 N 9 13 5 7 1010.5 1010.5 0.0
24/10:30pm 28.8 31.7 21.8 66 4.7 NNW 9 17 5 9 1010.2 1010.2 0.0
24/10:00pm 29.0 32.3 23.2 71 4.0 NNW 11 20 6 11 1009.8 1009.8 0.0
24/09:30pm 28.7 31.5 23.6 74 3.5 NNW 15 28 8 15 1009.5 1009.5 0.0
24/09:00pm 28.8 32.6 24.1 76 3.3 NNW 11 20 6 11 1009.0 1009.0 0.0
24/08:30pm 28.8 32.5 24.6 78 2.9 NNW 13 24 7 13 1008.5 1008.5 0.0
24/08:00pm 28.9 32.6 24.5 77 3.1 NNW 13 22 7 12 1008.0 1008.0 0.0
24/07:30pm 29.0 32.4 24.1 75 3.4 NNW 13 20 7 11 1007.4 1007.4 0.0
24/07:00pm 29.4 32.6 23.1 69 4.3 N 11 20 6 11 1006.8 1006.8 0.0
24/06:30pm 30.2 33.3 22.9 65 5.0 N 11 22 6 12 1006.2 1006.2 0.0
24/06:00pm 31.1 34.3 22.4 60 5.9 NNW 9 15 5 8 1006.1 1006.1 0.0
24/05:30pm 32.3 35.1 23.0 58 6.4 NNW 13 20 7 11 1006.0 1006.0 0.0
24/05:00pm 32.6 36.0 23.3 58 6.4 NNW 11 20 6 11 1005.8 1005.8 0.0
24/04:30pm 32.2 34.8 22.0 55 6.9 NNW 11 17 6 9 1005.7 1005.7 0.0
24/04:00pm 33.5 36.8 23.8 57 6.8 NNW 13 22 7 12 1005.8 1005.8 0.0
24/03:30pm 33.3 36.4 23.6 56 6.8 NNW 13 22 7 12 1006.2 1006.2 0.0
24/03:00pm 33.4 35.9 23.1 54 7.1 NNW 15 20 8 11 1006.7 1006.7 0.0
24/02:30pm 34.2 36.6 22.9 51 7.8 N 15 24 8 13 1007.0 1007.0 0.0
24/02:00pm 34.2 36.2 22.3 50 8.2 NNW 15 22 8 12 1007.5 1007.5 0.0
24/01:30pm 34.1 36.2 22.5 50 8.0 NNW 15 24 8 13 1008.1 1008.1 0.0
24/01:00pm 34.6 36.9 22.0 48 8.6 NNW 13 22 7 12 1008.7 1008.7 0.0
24/12:30pm 34.4 37.1 22.8 51 8.0 NNW 13 22 7 12 1009.3 1009.3 0.0
24/12:00pm 33.9 35.6 21.0 47 8.7 NNW 13 20 7 11 1010.0 1010.0 0.0
24/11:30am 33.6 35.7 21.7 49 8.1 NNW 13 19 7 10 1010.4 1010.4 0.0
24/11:00am 32.5 35.7 22.3 55 7.0 N 9 15 5 8 1010.9 1010.9 0.0
24/10:30am 32.9 37.1 24.1 60 6.2 N 9 15 5 8 1011.3 1011.3 0.0
24/10:00am 31.8 34.7 23.9 63 5.5 WNW 15 20 8 11 1011.4 1011.4 0.0
24/09:30am 31.6 36.2 23.2 61 5.8 WNW 4 13 2 7 1011.5 1011.5 0.0
24/09:00am 30.3 34.4 23.0 65 5.0 SW 6 9 3 5 1011.4 1011.4 -
24/08:30am 29.3 34.1 23.5 71 4.0 S 4 7 2 4 1011.2 1011.2 -
24/08:00am 28.0 34.6 25.2 85 2.0 CALM 0 0 0 0 1010.7 1010.7 1.0
24/07:30am 26.5 33.1 25.3 93 0.8 CALM 0 0 0 0 1010.2 1010.2 1.0
24/07:00am 25.2 31.2 24.2 94 0.7 CALM 0 0 0 0 1009.8 1009.8 1.0
24/06:30am 24.9 30.5 23.5 92 1.0 CALM 0 0 0 0 1009.5 1009.5 1.0
24/06:00am 25.2 30.9 23.8 92 1.0 CALM 0 0 0 0 1009.4 1009.4 1.0
24/05:30am 25.9 30.6 23.9 89 1.4 NE 6 7 3 4 1008.8 1008.8 1.0
24/05:00am 26.3 31.2 24.7 91 1.1 NNE 7 9 4 5 1008.4 1008.4 1.0
24/04:30am 26.4 31.4 24.8 91 1.1 NNE 7 9 4 5 1008.4 1008.4 1.0
24/04:00am 26.4 31.8 25.4 94 0.7 N 7 13 4 7 1008.2 1008.2 1.0
24/03:30am 24.9 29.6 24.0 95 0.6 NNW 6 7 3 4 1008.2 1008.2 1.0
24/03:00am 24.7 30.4 23.7 94 0.7 CALM 0 0 0 0 1008.5 1008.5 1.0
24/02:30am 24.5 29.8 23.1 92 0.9 CALM 0 0 0 0 1008.9 1008.9 1.0
24/02:00am 24.7 29.3 23.1 91 1.1 E 4 7 2 4 1009.3 1009.3 1.0
24/01:30am 25.0 29.0 22.7 87 1.6 NNW 6 11 3 6 1009.7 1009.7 1.0
24/01:00am 27.3 30.7 22.7 76 3.1 NW 9 13 5 7 1009.9 1009.9 0.0
24/12:30am 28.4 32.1 24.6 80 2.6 SSW 13 15 7 8 1009.7 1009.7 0.0
24/12:00am 28.8 32.7 24.8 79 2.8 WSW 13 24 7 13 1010.2 1010.2 0.0
 
Date/Time
CST
Temp
°C
App
Temp
°C
Dew
Point
°C
Rel
Hum
%
Delta-T
°C
Wind Press
QNH
hPa
Press
MSL
hPa
Rain since
9am
mm
Dir  Spd
km/h
Gust
km/h
Spd
kts
Gust
kts
23/11:30pm 28.2 33.2 24.8 82 2.4 WNW 7 11 4 6 1010.2 1010.2 0.0
23/11:00pm 28.5 34.1 25.5 84 2.1 N 6 9 3 5 1010.2 1010.2 0.0
23/10:30pm 28.7 33.5 25.1 81 2.5 N 9 15 5 8 1010.3 1010.3 0.0
23/10:00pm 28.9 33.6 24.9 79 2.8 NNW 9 20 5 11 1010.1 1010.1 0.0
23/09:30pm 28.7 32.6 24.9 80 2.7 NNW 13 20 7 11 1010.0 1010.0 0.0
23/09:00pm 28.8 32.4 25.0 80 2.7 NNW 15 20 8 11 1009.4 1009.4 0.0
23/08:30pm 28.9 32.6 25.1 80 2.7 NNW 15 20 8 11 1009.0 1009.0 0.0
23/08:00pm 29.3 32.4 24.8 77 3.1 NW 17 20 9 11 1009.0 1009.0 0.0
23/07:30pm 29.2 31.5 24.5 76 3.3 NW 20 26 11 14 1008.7 1008.7 0.0
23/07:00pm 29.5 32.6 24.1 72 3.7 NNW 15 26 8 14 1007.9 1007.9 0.0
23/06:30pm 30.2 33.5 23.9 69 4.4 NNW 13 20 7 11 1007.6 1007.6 0.0
23/06:00pm 31.3 34.0 23.4 63 5.5 N 15 24 8 13 1007.2 1007.2 0.0
23/05:30pm 32.4 35.1 22.8 57 6.6 N 13 20 7 11 1006.8 1006.8 0.0
23/05:00pm 32.6 35.4 23.0 57 6.6 N 13 24 7 13 1006.8 1006.8 0.0
23/04:30pm 33.8 37.2 24.1 57 6.8 N 13 24 7 13 1006.6 1006.6 0.0

Latest Capital City Observations: Canberra | Sydney | Melbourne | Brisbane | Adelaide | Perth | Hobart | Darwin

Other formats

Comma delimited format used in spreadsheet applications
http://www.bom.gov.au/fwo/IDD60901/IDD60901.94127.axf

JavaScript Object Notation format (JSON) in row-major order
http://www.bom.gov.au/fwo/IDD60901/IDD60901.94127.json

Data quality

Most of these data are generated automatically and are frequently updated. Quality checks on data are not normally performed. It is possible for incorrect values to appear. Refer to information at About Latest Weather Observations and please check the disclaimer before using these data.